createdAt,value
2022-12-11T00:00:22.715Z,98444.31
2022-12-11T00:02:49.566Z,98447.72
2022-12-11T00:05:16.464Z,98440.69
2022-12-11T00:07:43.528Z,98440.88
2022-12-11T00:10:10.492Z,98437.19
2022-12-11T00:12:37.278Z,98432.09
2022-12-11T00:15:04.408Z,98425.00
2022-12-11T00:17:31.337Z,98418.91
2022-12-11T00:20:01.048Z,98411.16
2022-12-11T00:22:30.259Z,98420.00
2022-12-11T00:24:57.154Z,98402.44
2022-12-11T00:27:24.285Z,98397.19
2022-12-11T00:29:51.223Z,98404.25
2022-12-11T00:32:17.974Z,98405.12
2022-12-11T00:34:44.824Z,98393.84
2022-12-11T00:37:11.654Z,98393.91
2022-12-11T00:39:39.904Z,98406.19
2022-12-11T00:42:07.861Z,98403.62
2022-12-11T00:44:35.163Z,98408.81
2022-12-11T00:47:02.379Z,98412.31
2022-12-11T00:49:29.860Z,98405.47
2022-12-11T00:51:56.713Z,98400.22
2022-12-11T00:54:23.551Z,98399.47
2022-12-11T00:56:50.945Z,98398.50
2022-12-11T00:59:17.833Z,98398.56
2022-12-11T01:01:44.817Z,98385.53
2022-12-11T01:04:11.704Z,98400.44
2022-12-11T01:06:39.307Z,98397.06
2022-12-11T01:09:25.321Z,98397.12
2022-12-11T01:11:52.257Z,98397.12
2022-12-11T01:14:19.194Z,98391.03
2022-12-11T01:16:46.084Z,98401.50
2022-12-11T01:19:13.010Z,98396.28
2022-12-11T01:21:39.863Z,98386.66
2022-12-11T01:24:06.920Z,98385.91
2022-12-11T01:26:33.743Z,98390.31
2022-12-11T01:29:01.436Z,98394.69
2022-12-11T01:31:28.320Z,98403.56
2022-12-11T01:33:56.058Z,98401.84
2022-12-11T01:36:24.249Z,98393.25
2022-12-11T01:38:51.250Z,98393.19
2022-12-11T01:41:19.038Z,98399.41
2022-12-11T01:44:08.454Z,98407.41
2022-12-11T01:46:39.492Z,98408.25
2022-12-11T01:49:11.204Z,98412.72
2022-12-11T01:51:47.808Z,98416.31
2022-12-11T01:54:17.436Z,98414.59
2022-12-11T01:56:45.405Z,98401.59
2022-12-11T01:59:15.647Z,98397.31
2022-12-11T02:01:55.166Z,98403.50
2022-12-11T02:04:23.212Z,98406.13
2022-12-11T02:06:52.039Z,98409.63
2022-12-11T02:09:33.960Z,98397.62
2022-12-11T02:12:27.605Z,98414.16
2022-12-11T02:15:27.032Z,98412.50
2022-12-11T02:18:07.376Z,98409.09
2022-12-11T02:20:55.569Z,98416.13
2022-12-11T02:23:42.695Z,98419.72
2022-12-11T02:26:09.484Z,98414.56
2022-12-11T02:28:42.044Z,98412.78
2022-12-11T02:31:24.338Z,98405.03
2022-12-11T02:34:01.096Z,98415.53
2022-12-11T02:36:32.406Z,98414.72
2022-12-11T02:39:01.350Z,98418.31
2022-12-11T02:41:29.889Z,98413.06
2022-12-11T02:43:58.316Z,98401.84
2022-12-11T02:46:27.252Z,98413.22
2022-12-11T02:48:55.895Z,98415.91
2022-12-11T02:51:30.785Z,98410.84
2022-12-11T02:53:59.447Z,98403.13
2022-12-11T02:56:57.380Z,98403.19
2022-12-11T02:59:30.101Z,98402.38
2022-12-11T03:01:57.071Z,98406.91
2022-12-11T03:04:25.001Z,98393.97
2022-12-11T03:06:56.519Z,98400.16
2022-12-11T03:09:23.380Z,98400.22
2022-12-11T03:11:50.308Z,98402.03
2022-12-11T03:14:17.174Z,98400.31
2022-12-11T03:17:05.160Z,98394.31
2022-12-11T03:19:39.994Z,98396.09
2022-12-11T03:22:18.916Z,98379.69
2022-12-11T03:25:04.361Z,98380.56
2022-12-11T03:27:40.948Z,98389.28
2022-12-11T03:30:12.786Z,98383.25
2022-12-11T03:32:49.342Z,98381.53
2022-12-11T03:35:29.410Z,98388.56
2022-12-11T03:38:01.427Z,98388.56
2022-12-11T03:40:31.504Z,98383.34
2022-12-11T03:42:58.686Z,98383.41
2022-12-11T03:45:28.131Z,98379.06
2022-12-11T03:47:58.182Z,98377.34
2022-12-11T03:50:30.306Z,98379.09
2022-12-11T03:52:58.323Z,98372.19
2022-12-11T03:55:26.656Z,98369.59
2022-12-11T03:57:53.459Z,98379.06
2022-12-11T04:00:21.290Z,98378.16
2022-12-11T04:03:13.621Z,98395.66
2022-12-11T04:05:47.163Z,98380.91
2022-12-11T04:08:15.159Z,98391.28
2022-12-11T04:10:42.459Z,98388.72
2022-12-11T04:13:10.619Z,98396.47
2022-12-11T04:15:38.800Z,98393.84
2022-12-11T04:18:24.677Z,98389.47
2022-12-11T04:21:14.851Z,98393.84
2022-12-11T04:24:00.146Z,98394.78
2022-12-11T04:26:27.270Z,98400.94
2022-12-11T04:28:54.426Z,98399.13
2022-12-11T04:31:22.816Z,98392.19
2022-12-11T04:33:49.971Z,98408.59
2022-12-11T04:36:17.058Z,98403.38
2022-12-11T04:38:44.388Z,98413.88
2022-12-11T04:41:13.831Z,98419.16
2022-12-11T04:43:41.284Z,98429.66
2022-12-11T04:46:17.394Z,98433.22
2022-12-11T04:48:45.027Z,98439.31
2022-12-11T04:51:12.379Z,98436.81
2022-12-11T04:53:39.247Z,98439.50
2022-12-11T04:56:12.001Z,98447.25
2022-12-11T04:58:39.651Z,98436.75
2022-12-11T05:01:21.780Z,98447.25
2022-12-11T05:03:49.247Z,98448.16
2022-12-11T05:06:16.249Z,98459.56
2022-12-11T05:08:43.999Z,98459.56
2022-12-11T05:11:14.823Z,98471.81
2022-12-11T05:13:42.141Z,98474.44
2022-12-11T05:16:12.098Z,98477.97
2022-12-11T05:18:39.099Z,98484.09
2022-12-11T05:21:09.127Z,98477.19
2022-12-11T05:23:36.493Z,98484.16
2022-12-11T05:26:07.113Z,98482.47
2022-12-11T05:28:36.565Z,98481.53
2022-12-11T05:31:11.650Z,98471.97
2022-12-11T05:33:38.541Z,98480.69
2022-12-11T05:36:06.984Z,98480.72
2022-12-11T05:38:33.957Z,98479.06
2022-12-11T05:41:04.406Z,98479.84
2022-12-11T05:43:33.491Z,98483.38
2022-12-11T05:46:15.435Z,98483.38
2022-12-11T05:48:43.596Z,98480.78
2022-12-11T05:51:16.174Z,98472.06
2022-12-11T05:53:45.098Z,98470.41
2022-12-11T05:56:25.015Z,98480.88
2022-12-11T05:58:52.723Z,98483.53
2022-12-11T06:01:25.140Z,98484.41
2022-12-11T06:03:52.253Z,98487.97
2022-12-11T06:06:19.245Z,98492.37
2022-12-11T06:08:46.155Z,98496.81
2022-12-11T06:11:20.901Z,98505.53
2022-12-11T06:13:50.702Z,98504.66
2022-12-11T06:16:17.568Z,98505.47
2022-12-11T06:18:45.451Z,98505.59
2022-12-11T06:21:17.043Z,98506.41
2022-12-11T06:23:45.999Z,98517.75
2022-12-11T06:26:14.499Z,98519.47
2022-12-11T06:28:41.511Z,98532.53
2022-12-11T06:31:08.667Z,98518.69
2022-12-11T06:33:36.200Z,98543.03
2022-12-11T06:36:09.285Z,98534.38
2022-12-11T06:38:36.613Z,98548.28
2022-12-11T06:41:04.957Z,98532.69
2022-12-11T06:43:33.453Z,98554.38
2022-12-11T06:46:04.387Z,98567.47
2022-12-11T06:48:31.496Z,98556.16
2022-12-11T06:50:58.408Z,98564.00
2022-12-11T06:53:25.334Z,98569.16
2022-12-11T06:55:52.111Z,98570.91
2022-12-11T06:58:18.991Z,98583.06
2022-12-11T07:00:46.040Z,98590.06
2022-12-11T07:03:13.812Z,98594.41
2022-12-11T07:05:44.296Z,98587.50
2022-12-11T07:08:11.213Z,98611.94
2022-12-11T07:10:38.046Z,98617.12
2022-12-11T07:13:04.839Z,98616.25
2022-12-11T07:15:32.377Z,98621.50
2022-12-11T07:18:00.709Z,98621.50
2022-12-11T07:20:27.751Z,98627.59
2022-12-11T07:22:54.956Z,98634.59
2022-12-11T07:25:21.792Z,98633.72
2022-12-11T07:27:48.662Z,98635.41
2022-12-11T07:30:15.815Z,98637.13
2022-12-11T07:32:42.694Z,98645.78
2022-12-11T07:35:09.987Z,98649.22
2022-12-11T07:37:39.708Z,98650.09
2022-12-11T07:40:08.018Z,98652.66
2022-12-11T07:42:35.228Z,98647.41
2022-12-11T07:45:02.029Z,98674.31
2022-12-11T07:47:29.378Z,98673.47
2022-12-11T07:49:56.953Z,98674.28
2022-12-11T07:52:23.802Z,98658.69
2022-12-11T07:54:51.032Z,98672.47
2022-12-11T07:57:17.869Z,98675.94
2022-12-11T07:59:44.801Z,98682.91
2022-12-11T08:02:12.059Z,98675.94
2022-12-11T08:04:39.257Z,98682.87
2022-12-11T08:07:06.068Z,98685.44
2022-12-11T08:09:33.482Z,98685.44
2022-12-11T08:12:00.318Z,98683.63
2022-12-11T08:14:27.157Z,98691.47
2022-12-11T08:16:54.035Z,98698.44
2022-12-11T08:19:20.863Z,98692.31
2022-12-11T08:21:47.661Z,98700.13
2022-12-11T08:24:16.440Z,98703.59
2022-12-11T08:26:43.296Z,98695.72
2022-12-11T08:29:10.128Z,98719.25
2022-12-11T08:31:36.993Z,98709.66
2022-12-11T08:34:03.761Z,98722.75
2022-12-11T08:36:30.698Z,98729.69
2022-12-11T08:38:57.714Z,98741.06
2022-12-11T08:41:27.460Z,98745.38
2022-12-11T08:43:55.553Z,98734.03
2022-12-11T08:46:24.934Z,98756.66
2022-12-11T08:48:52.204Z,98759.19
2022-12-11T08:51:22.453Z,98757.41
2022-12-11T08:53:50.270Z,98769.66
2022-12-11T08:56:20.424Z,98767.94
2022-12-11T08:58:47.756Z,98774.09
2022-12-11T09:01:18.648Z,98785.34
2022-12-11T09:03:45.543Z,98790.59
2022-12-11T09:06:15.429Z,98788.87
2022-12-11T09:08:50.229Z,98781.13
2022-12-11T09:11:26.707Z,98795.06
2022-12-11T09:13:53.915Z,98799.47
2022-12-11T09:16:23.117Z,98806.44
2022-12-11T09:18:51.979Z,98801.19
2022-12-11T09:21:21.263Z,98805.56
2022-12-11T09:23:48.826Z,98798.59
2022-12-11T09:26:17.805Z,98799.47
2022-12-11T09:28:47.043Z,98808.19
2022-12-11T09:31:15.473Z,98803.81
2022-12-11T09:33:42.722Z,98804.63
2022-12-11T09:36:10.531Z,98798.53
2022-12-11T09:38:37.685Z,98797.66
2022-12-11T09:41:38.622Z,98804.59
2022-12-11T09:44:11.443Z,98800.28
2022-12-11T09:46:40.776Z,98808.12
2022-12-11T09:49:22.071Z,98799.47
2022-12-11T09:52:17.303Z,98778.56
2022-12-11T09:54:50.396Z,98788.09
2022-12-11T09:57:32.935Z,98771.53
2022-12-11T10:00:06.505Z,98789.78
2022-12-11T10:03:01.091Z,98774.97
2022-12-11T10:05:43.122Z,98778.38
2022-12-11T10:08:28.543Z,98768.78
2022-12-11T10:11:33.123Z,98766.97
2022-12-11T10:14:11.586Z,98764.41
2022-12-11T10:16:43.950Z,98764.41
2022-12-11T10:19:23.460Z,98759.19
2022-12-11T10:21:52.700Z,98760.91
2022-12-11T10:24:42.226Z,98743.44
2022-12-11T10:27:21.456Z,98754.72
2022-12-11T10:30:02.841Z,98744.37
2022-12-11T10:33:09.766Z,98762.66
2022-12-11T10:35:43.913Z,98773.06
2022-12-11T10:38:14.045Z,98785.25
2022-12-11T10:40:49.369Z,98787.84
2022-12-11T10:43:16.469Z,98782.59
2022-12-11T10:45:54.829Z,98791.41
2022-12-11T10:48:22.347Z,98810.56
2022-12-11T10:51:04.257Z,98804.47
2022-12-11T10:53:33.463Z,98798.34
2022-12-11T10:56:01.808Z,98802.75
2022-12-11T10:58:33.996Z,98803.69
2022-12-11T11:01:07.004Z,98802.81
2022-12-11T11:03:36.402Z,98806.28
2022-12-11T11:06:04.983Z,98807.19
2022-12-11T11:08:44.718Z,98812.41
2022-12-11T11:11:21.060Z,98813.34
2022-12-11T11:13:47.890Z,98806.34
2022-12-11T11:16:18.815Z,98813.31
2022-12-11T11:18:57.646Z,98820.28
2022-12-11T11:21:26.543Z,98809.84
2022-12-11T11:23:54.303Z,98828.97
2022-12-11T11:26:38.303Z,98827.22
2022-12-11T11:29:25.786Z,98820.31
2022-12-11T11:31:52.807Z,98804.59
2022-12-11T11:34:22.340Z,98807.19
2022-12-11T11:36:57.941Z,98812.44
2022-12-11T11:39:35.882Z,98809.78
2022-12-11T11:42:20.957Z,98801.09
2022-12-11T11:45:04.102Z,98793.28
2022-12-11T11:47:38.040Z,98820.31
2022-12-11T11:50:24.614Z,98825.47
2022-12-11T11:53:12.791Z,98835.87
2022-12-11T11:56:07.571Z,98844.56
2022-12-11T11:58:52.560Z,98859.41
2022-12-11T12:01:22.008Z,98863.75
2022-12-11T12:03:50.518Z,98851.50
2022-12-11T12:06:23.023Z,98862.03
2022-12-11T12:09:06.103Z,98860.34
2022-12-11T12:12:00.265Z,98870.78
2022-12-11T12:14:52.078Z,98869.97
2022-12-11T12:17:26.513Z,98862.06
2022-12-11T12:20:18.262Z,98877.78
2022-12-11T12:22:57.049Z,98884.75
2022-12-11T12:25:40.607Z,98883.88
2022-12-11T12:28:29.625Z,98879.53
2022-12-11T12:31:05.705Z,98884.75
2022-12-11T12:34:06.924Z,98879.53
2022-12-11T12:36:53.910Z,98895.22
2022-12-11T12:40:09.179Z,98891.75
2022-12-11T12:42:42.061Z,98890.00
2022-12-11T12:45:14.801Z,98898.72
2022-12-11T12:47:51.967Z,98887.38
2022-12-11T12:50:24.171Z,98881.25
2022-12-11T12:52:53.054Z,98882.16
2022-12-11T12:55:24.250Z,98886.53
2022-12-11T12:57:55.208Z,98883.91
2022-12-11T13:00:35.606Z,98890.03
2022-12-11T13:03:13.410Z,98883.03
2022-12-11T13:05:43.723Z,98891.78
2022-12-11T13:08:11.997Z,98900.50
2022-12-11T13:10:41.766Z,98904.88
2022-12-11T13:13:55.222Z,98915.28
2022-12-11T13:16:25.835Z,98917.06
2022-12-11T13:18:54.073Z,98925.78
2022-12-11T13:21:34.910Z,98923.16
2022-12-11T13:24:25.328Z,98938.84
2022-12-11T13:26:52.417Z,98938.84
2022-12-11T13:29:37.804Z,98954.53
2022-12-11T13:32:10.531Z,98947.56
2022-12-11T13:34:43.053Z,98951.94
2022-12-11T13:37:31.974Z,98966.75
2022-12-11T13:40:00.402Z,98958.03
2022-12-11T13:42:33.339Z,98966.75
2022-12-11T13:45:01.976Z,98966.75
2022-12-11T13:47:32.650Z,98965.03
2022-12-11T13:50:18.312Z,98972.87
2022-12-11T13:52:57.670Z,98966.81
2022-12-11T13:55:30.526Z,98976.38
2022-12-11T13:57:58.191Z,98971.16
2022-12-11T14:00:30.404Z,98965.91
2022-12-11T14:03:02.028Z,98980.75
2022-12-11T14:05:29.802Z,98977.28
2022-12-11T14:07:59.692Z,98970.34
2022-12-11T14:10:29.812Z,98980.78
2022-12-11T14:13:01.662Z,98987.78
2022-12-11T14:15:30.298Z,98996.53
2022-12-11T14:17:59.423Z,99001.78
2022-12-11T14:20:29.760Z,98996.56
2022-12-11T14:23:05.792Z,98999.16
2022-12-11T14:25:32.683Z,99000.97
2022-12-11T14:28:01.931Z,99005.31
2022-12-11T14:30:32.226Z,99000.13
2022-12-11T14:33:05.469Z,99019.31
2022-12-11T14:35:38.871Z,99033.28
2022-12-11T14:38:29.382Z,99033.28
2022-12-11T14:41:06.338Z,99049.03
2022-12-11T14:43:38.997Z,99043.78
2022-12-11T14:46:16.764Z,99039.44
2022-12-11T14:49:12.058Z,99047.28
2022-12-11T14:51:41.696Z,99029.91
2022-12-11T14:54:20.526Z,99046.44
2022-12-11T14:56:47.649Z,99045.59
2022-12-11T14:59:26.936Z,99043.84
2022-12-11T15:02:08.240Z,99046.47
2022-12-11T15:04:35.693Z,99041.25
2022-12-11T15:07:02.590Z,99046.50
2022-12-11T15:09:40.840Z,99043.03
2022-12-11T15:12:14.593Z,99048.25
2022-12-11T15:14:54.333Z,99037.00
2022-12-11T15:17:26.336Z,99056.13
2022-12-11T15:20:07.996Z,99067.47
2022-12-11T15:22:36.717Z,99076.16
2022-12-11T15:25:04.725Z,99070.97
2022-12-11T15:27:36.698Z,99070.97
2022-12-11T15:33:22.289Z,99073.59
2022-12-11T15:36:30.717Z,99079.69
2022-12-11T15:38:59.999Z,99075.31
2022-12-11T15:41:28.863Z,99079.72
2022-12-11T15:44:01.420Z,99086.66
2022-12-11T15:46:28.992Z,99077.97
2022-12-11T15:48:57.669Z,99084.97
2022-12-11T15:51:25.917Z,99087.56
2022-12-11T15:53:52.787Z,99078.00
2022-12-11T15:56:19.716Z,99084.97
2022-12-11T15:58:48.008Z,99086.72
2022-12-11T16:01:15.049Z,99090.22
2022-12-11T16:03:42.834Z,99086.75
2022-12-11T16:06:13.252Z,99093.69
2022-12-11T16:08:40.187Z,99092.84
2022-12-11T16:11:08.358Z,99097.19
2022-12-11T16:13:35.809Z,99102.41
2022-12-11T16:16:04.353Z,99100.69
2022-12-11T16:18:32.604Z,99103.31
2022-12-11T16:21:06.404Z,99099.84
2022-12-11T16:23:33.258Z,99110.25
2022-12-11T16:26:06.999Z,99110.25
2022-12-11T16:28:34.217Z,99125.06
2022-12-11T16:31:01.996Z,99116.37
2022-12-11T16:33:29.220Z,99117.22
2022-12-11T16:35:59.361Z,99119.84
2022-12-11T16:38:26.764Z,99122.44
2022-12-11T16:41:03.487Z,99119.00
2022-12-11T16:43:32.403Z,99112.03
2022-12-11T16:46:00.075Z,99128.53
2022-12-11T16:48:27.291Z,99136.38
2022-12-11T16:50:54.818Z,99127.69
2022-12-11T16:53:22.581Z,99136.41
2022-12-11T16:55:50.445Z,99136.41
2022-12-11T16:58:20.636Z,99131.19
2022-12-11T17:00:48.653Z,99128.59
2022-12-11T17:03:16.472Z,99133.78
2022-12-11T17:05:44.003Z,99132.94
2022-12-11T17:08:11.192Z,99139.87
2022-12-11T17:10:42.509Z,99130.31
2022-12-11T17:13:09.587Z,99138.13
2022-12-11T17:15:41.129Z,99134.66
2022-12-11T17:18:13.222Z,99141.63
2022-12-11T17:20:44.769Z,99141.63
2022-12-11T17:23:15.267Z,99139.87
2022-12-11T17:25:45.332Z,99143.38
2022-12-11T17:28:13.668Z,99145.97
2022-12-11T17:30:42.407Z,99149.44
2022-12-11T17:33:11.442Z,99140.78
2022-12-11T17:35:39.178Z,99152.06
2022-12-11T17:38:06.973Z,99145.94
2022-12-11T17:40:35.184Z,99157.25
2022-12-11T17:43:07.010Z,99159.88
2022-12-11T17:45:35.933Z,99165.13
2022-12-11T17:48:03.717Z,99156.41
2022-12-11T17:50:33.460Z,99167.72
2022-12-11T17:53:00.858Z,99166.84
2022-12-11T17:55:28.075Z,99172.94
2022-12-11T17:57:55.486Z,99177.28
2022-12-11T18:00:24.582Z,99183.38
2022-12-11T18:02:53.774Z,99183.38
2022-12-11T18:05:22.396Z,99185.09
2022-12-11T18:07:57.309Z,99179.03
2022-12-11T18:10:25.548Z,99183.38
2022-12-11T18:12:52.831Z,99190.31
2022-12-11T18:15:19.918Z,99186.84
2022-12-11T18:17:47.226Z,99190.31
2022-12-11T18:20:16.175Z,99180.75
2022-12-11T18:22:43.930Z,99181.62
2022-12-11T18:25:12.510Z,99174.66
2022-12-11T18:27:40.328Z,99172.03
2022-12-11T18:30:11.446Z,99180.75
2022-12-11T18:32:45.526Z,99188.56
2022-12-11T18:35:13.637Z,99193.78
2022-12-11T18:37:41.689Z,99185.97
2022-12-11T18:40:12.381Z,99192.91
2022-12-11T18:42:39.742Z,99192.94
2022-12-11T18:45:07.515Z,99191.19
2022-12-11T18:47:35.135Z,99202.47
2022-12-11T18:50:07.700Z,99199.00
2022-12-11T18:52:38.668Z,99190.31
2022-12-11T18:55:07.055Z,99203.38
2022-12-11T18:57:34.856Z,99195.53
2022-12-11T19:00:08.804Z,99207.69
2022-12-11T19:02:36.504Z,99189.44
2022-12-11T19:05:05.388Z,99198.09
2022-12-11T19:07:33.192Z,99206.81
2022-12-11T19:10:04.928Z,99201.59
2022-12-11T19:12:32.747Z,99214.66
2022-12-11T19:15:00.448Z,99215.50
2022-12-11T19:17:29.085Z,99216.37
2022-12-11T19:19:57.657Z,99221.59
2022-12-11T19:22:28.143Z,99226.81
2022-12-11T19:24:55.845Z,99225.06
2022-12-11T19:27:26.494Z,99230.28
2022-12-11T19:29:54.450Z,99221.56
2022-12-11T19:32:21.767Z,99228.53
2022-12-11T19:34:53.930Z,99226.81
2022-12-11T19:37:22.369Z,99215.50
2022-12-11T19:39:51.308Z,99231.16
2022-12-11T19:42:19.334Z,99232.88
2022-12-11T19:44:47.383Z,99224.16
2022-12-11T19:47:15.189Z,99224.19
2022-12-11T19:49:43.160Z,99220.69
2022-12-11T19:52:13.203Z,99225.03
2022-12-11T19:54:40.343Z,99225.91
2022-12-11T19:57:08.602Z,99224.16
2022-12-11T19:59:37.371Z,99231.13
2022-12-11T20:02:06.806Z,99235.47
2022-12-11T20:04:34.488Z,99231.13
2022-12-11T20:07:02.215Z,99232.00
2022-12-11T20:09:31.466Z,99234.59
2022-12-11T20:12:00.497Z,99232.00
2022-12-11T20:14:28.525Z,99240.69
2022-12-11T20:17:15.181Z,99245.03
2022-12-11T20:19:43.706Z,99239.81
2022-12-11T20:22:11.542Z,99237.19
2022-12-11T20:24:39.548Z,99233.69
2022-12-11T20:27:07.177Z,99242.41
2022-12-11T20:29:34.790Z,99250.25
2022-12-11T20:32:03.802Z,99258.06
2022-12-11T20:34:32.514Z,99258.06
2022-12-11T20:37:00.846Z,99258.03
2022-12-11T20:39:29.602Z,99264.13
2022-12-11T20:41:57.238Z,99268.47
2022-12-11T20:44:24.790Z,99258.03
2022-12-11T20:46:52.412Z,99240.59
2022-12-11T20:49:19.830Z,99251.91
2022-12-11T20:51:47.154Z,99247.53
2022-12-11T20:54:14.282Z,99257.09
2022-12-11T20:56:43.287Z,99247.56
2022-12-11T20:59:11.752Z,99247.53
2022-12-11T21:01:40.903Z,99252.75
2022-12-11T21:04:10.513Z,99248.41
2022-12-11T21:06:40.620Z,99249.25
2022-12-11T21:09:18.308Z,99240.56
2022-12-11T21:11:45.577Z,99249.25
2022-12-11T21:14:13.586Z,99235.31
2022-12-11T21:16:40.654Z,99248.34
2022-12-11T21:19:11.303Z,99239.63
2022-12-11T21:21:43.559Z,99252.72
2022-12-11T21:24:17.769Z,99250.94
2022-12-11T21:26:45.930Z,99248.34
2022-12-11T21:29:13.702Z,99257.03
2022-12-11T21:31:43.094Z,99263.09
2022-12-11T21:34:11.975Z,99254.41
2022-12-11T21:36:38.963Z,99259.59
2022-12-11T21:39:06.826Z,99273.50
2022-12-11T21:41:34.082Z,99265.66
2022-12-11T21:46:47.840Z,99268.25
2022-12-11T21:49:15.130Z,99274.34
2022-12-11T21:51:46.893Z,99283.00
2022-12-11T21:54:16.730Z,99275.09
2022-12-11T21:56:43.933Z,99287.34
2022-12-11T21:59:10.877Z,99289.91
2022-12-11T22:01:42.111Z,99291.59
2022-12-11T22:04:10.770Z,99285.50
2022-12-11T22:06:37.685Z,99306.41
2022-12-11T22:09:05.306Z,99301.19
2022-12-11T22:11:34.451Z,99296.84
2022-12-11T22:14:01.784Z,99291.59
2022-12-11T22:16:28.933Z,99308.13
2022-12-11T22:18:55.851Z,99299.44
2022-12-11T22:21:22.868Z,99282.88
2022-12-11T22:23:50.011Z,99314.22
2022-12-11T22:26:25.662Z,99323.72
2022-12-11T22:28:53.276Z,99313.31
2022-12-11T22:31:22.366Z,99315.03
2022-12-11T22:33:51.249Z,99312.41
2022-12-11T22:36:19.043Z,99327.19
2022-12-11T22:38:47.095Z,99321.03
2022-12-11T22:41:22.339Z,99311.53
2022-12-11T22:43:49.822Z,99325.41
2022-12-11T22:46:18.522Z,99316.66
2022-12-11T22:48:45.391Z,99326.19
2022-12-11T22:51:12.559Z,99334.91
2022-12-11T22:53:39.432Z,99326.19
2022-12-11T22:56:08.539Z,99334.03
2022-12-11T22:58:35.682Z,99334.00
2022-12-11T23:01:03.558Z,99330.59
2022-12-11T23:03:30.540Z,99333.97
2022-12-11T23:06:00.768Z,99326.19
2022-12-11T23:08:30.747Z,99318.28
2022-12-11T23:10:57.628Z,99327.75
2022-12-11T23:13:24.528Z,99345.13
2022-12-11T23:15:51.368Z,99345.87
2022-12-11T23:18:18.195Z,99344.19
2022-12-11T23:20:45.280Z,99352.84
2022-12-11T23:23:12.226Z,99352.81
2022-12-11T23:25:39.246Z,99353.66
2022-12-11T23:28:06.133Z,99357.12
2022-12-11T23:30:33.022Z,99368.41
2022-12-11T23:32:59.876Z,99360.66
2022-12-11T23:35:26.772Z,99365.75
2022-12-11T23:37:53.707Z,99374.41
2022-12-11T23:40:20.818Z,99372.66
2022-12-11T23:42:50.287Z,99370.94
2022-12-11T23:45:17.204Z,99367.41
2022-12-11T23:47:44.161Z,99363.91
2022-12-11T23:50:14.050Z,99354.31
2022-12-11T23:52:40.896Z,99364.69
2022-12-11T23:55:08.587Z,99354.22
2022-12-11T23:57:35.694Z,99343.75
